Deering, AK

16:30 AKST le 18 décembre 2014 (GMT -0900)
Deering (New) | Change Station
CLOSE
Current Station
Aéroport
Location: Deering,
Altitude: 16 ft
Stations météo à proximité

Alt. 16 ft 66.07 °N, 162.77 °W | Updated 37 minutes ago

Clear
Ciel dégagé
9 ° F
Paraît -3 ° F
N
8
Vent Variable Vent de NE

Aujourd'hui
Haut(e) -- | Bas -- ° F
--% Risque de précip.
Hier
Haut(e) -- | Bas -- ° F
Precip. -- pouce
12:25 PM 3:10 PM
Lune descendante, 11% visible
Pression 29.62 pouce
Visibilité 10.0 Miles terrestres
Nuages Ciel dégagé
Refroidissement éolien -3 ° F
Point de rosée 4 ° F
Humidité 80%
Précipitations 0.00 pouce
Profondeur de la couche neigeuse Non disponible.
UV 0 sur 12
Pollen Non disponible.
Qualité de l'air Non disponible.
Flu Activity Non disponible.
METAR PADE 190053Z AUTO 05007KT 10SM CLR M13/M16 A2962 RMK AO2 SLP030 T11281156 TSNO

More Conditions Fewer Conditions

Pression 29.62 pouce
Visibilité 10.0 Miles terrestres
Nuages Ciel dégagé
Refroidissement éolien -3 ° F
Point de rosée 4 ° F
Humidité 80%
Précipitations 0.00 pouce
Profondeur de la couche neigeuse Non disponible.
UV 0 sur 12
Pollen Non disponible.
Qualité de l'air Non disponible.
Flu Activity Non disponible.
METAR PADE 190053Z AUTO 05007KT 10SM CLR M13/M16 A2962 RMK AO2 SLP030 T11281156 TSNO

More Conditions Fewer Conditions

10-Day Weather Forecast

Almanac

Astronomie

Dec. 18, 2014 Lever Coucher
Temps réel
Crépuscule civil
Crépuscule nautique
Crépuscule astronomique
Lune
Durée de lumière visible
Longueur du jour
Tomorrow will be .
, % of the Moon is Illuminated

Extrêmes aujourd'hui

State Highs State Lows

Community

WunderPhotos

Upload Photos

1,779,032 Photos téléchargées !

WunderBlogs® & News

Nearby

Qualité de l'air

  Qualité de l'air Indice de la qualité de l'air Polluant
Not available.

Épaisseur de neige

Station Depth Altitude

Activité sismique

Ville Distance Mag. Time & Date
Minimum magnitude displayed is 2.5.

Températures des eaux côtières

Lieu Température

Stations météo à proximité